Time;durP1;ratioP1;P1;durP2;ratioP2;P2;SDS_P1;SDS_P2;PMS_P1;PMS_P2;Temp;Humidity;BMP_temperature;BMP_pressure;BME280_temperature;BME280_humidity;BME280_pressure;Samples;Min_cycle;Max_cycle;Signal;HPM_P1;HPM_P2
2023/08/29 00:00:34;;;;;;;14.80;13.90;;;13.40;99.90;;;;;;4992194;28;20787;-80
2023/08/29 00:03:03;;;;;;;14.47;13.47;;;13.40;99.90;;;;;;4985857;28;20221;-81
2023/08/29 00:05:32;;;;;;;14.73;13.80;;;13.40;99.90;;;;;;5008678;28;20296;-80
2023/08/29 00:07:58;;;;;;;14.70;13.80;;;13.40;99.90;;;;;;4993645;28;20242;-81
2023/08/29 00:10:26;;;;;;;14.57;13.77;;;13.50;99.90;;;;;;5009530;28;20232;-80
2023/08/29 00:12:53;;;;;;;14.53;13.73;;;13.50;99.90;;;;;;4994526;28;20193;-80
2023/08/29 00:15:20;;;;;;;15.10;14.07;;;13.40;99.90;;;;;;4989572;28;20209;-80
2023/08/29 00:17:46;;;;;;;15.17;14.17;;;13.50;99.90;;;;;;4991819;28;20255;-80
2023/08/29 00:20:13;;;;;;;14.60;13.70;;;13.50;99.90;;;;;;5008389;28;20320;-80
2023/08/29 00:22:41;;;;;;;15.10;14.20;;;13.50;99.90;;;;;;5005193;28;20251;-79
2023/08/29 00:25:08;;;;;;;15.13;14.17;;;13.50;99.90;;;;;;5001958;28;20212;-81
2023/08/29 00:27:35;;;;;;;15.30;14.30;;;13.50;99.90;;;;;;4993795;28;20228;-80
2023/08/29 00:30:04;;;;;;;14.83;13.93;;;13.40;99.90;;;;;;5007745;28;20221;-80
2023/08/29 00:32:33;;;;;;;14.57;13.67;;;13.40;99.90;;;;;;4992016;28;20264;-80
2023/08/29 00:34:59;;;;;;;14.83;13.93;;;13.40;99.90;;;;;;5008601;28;20698;-81
2023/08/29 00:37:26;;;;;;;14.67;13.87;;;13.40;99.90;;;;;;5000723;28;20621;-80
2023/08/29 00:39:56;;;;;;;14.77;13.87;;;13.40;99.90;;;;;;5008869;28;20205;-80
2023/08/29 00:42:23;;;;;;;14.10;13.30;;;13.50;99.90;;;;;;5008387;28;20688;-80
2023/08/29 00:44:49;;;;;;;14.73;13.83;;;13.40;99.90;;;;;;5008427;28;20201;-80
2023/08/29 00:47:16;;;;;;;14.27;13.47;;;13.50;99.90;;;;;;4991919;28;20653;-81
2023/08/29 00:49:44;;;;;;;14.10;13.20;;;13.40;99.90;;;;;;5008645;28;20209;-81
2023/08/29 00:52:11;;;;;;;13.80;12.90;;;13.40;99.90;;;;;;4991980;28;20196;-80
2023/08/29 00:54:37;;;;;;;13.40;12.60;;;13.40;99.90;;;;;;5002178;28;20202;-80
2023/08/29 00:57:06;;;;;;;14.03;13.07;;;13.30;99.90;;;;;;5008538;28;20205;-80
2023/08/29 00:59:33;;;;;;;14.13;13.23;;;13.40;99.90;;;;;;5008507;28;20204;-81
2023/08/29 01:02:00;;;;;;;13.93;13.03;;;13.40;99.90;;;;;;4992065;28;20216;-81
2023/08/29 01:04:28;;;;;;;14.50;13.60;;;13.40;99.90;;;;;;5008425;28;20201;-80
2023/08/29 01:06:57;;;;;;;13.57;12.67;;;13.30;99.90;;;;;;5008694;28;20452;-80
2023/08/29 01:09:25;;;;;;;13.90;13.00;;;13.30;99.90;;;;;;4993053;28;20591;-80
2023/08/29 01:12:04;;;;;;;14.23;13.33;;;13.30;99.90;;;;;;5008446;28;20224;-80
2023/08/29 01:14:37;;;;;;;14.77;13.60;;;13.30;99.90;;;;;;4986478;28;20209;-80
2023/08/29 01:17:09;;;;;;;14.93;13.93;;;13.30;99.90;;;;;;4993467;28;20196;-80
2023/08/29 01:19:40;;;;;;;14.00;13.10;;;13.30;99.90;;;;;;4987147;28;20295;-80
2023/08/29 01:22:28;;;;;;;14.77;13.87;;;13.30;99.90;;;;;;5009153;28;20248;-80
2023/08/29 01:25:01;;;;;;;15.07;13.97;;;13.30;99.90;;;;;;4989244;28;20210;-80
2023/08/29 01:27:30;;;;;;;14.60;13.70;;;13.30;99.90;;;;;;4992932;28;20225;-80
2023/08/29 01:29:58;;;;;;;15.03;14.13;;;13.30;99.90;;;;;;4992385;28;20271;-81
2023/08/29 01:32:28;;;;;;;14.63;13.73;;;13.30;99.90;;;;;;5009561;28;20212;-80
2023/08/29 01:34:56;;;;;;;14.70;13.80;;;13.30;99.90;;;;;;5000008;28;20208;-80
2023/08/29 01:37:22;;;;;;;14.97;13.97;;;13.30;99.90;;;;;;4991492;28;20578;-80
2023/08/29 01:39:49;;;;;;;15.20;14.20;;;13.30;99.90;;;;;;5008263;28;20233;-80
2023/08/29 01:42:17;;;;;;;14.77;13.77;;;13.30;99.90;;;;;;4984330;28;20197;-80
2023/08/29 01:44:47;;;;;;;14.87;13.97;;;13.40;99.90;;;;;;5004729;28;20205;-80
2023/08/29 01:47:14;;;;;;;16.10;15.10;;;13.30;99.90;;;;;;5011121;28;20224;-80
2023/08/29 01:49:41;;;;;;;15.67;14.67;;;13.30;99.90;;;;;;5011795;28;20227;-81
2023/08/29 01:52:08;;;;;;;15.77;14.77;;;13.30;99.90;;;;;;4994731;28;20201;-80
2023/08/29 01:54:35;;;;;;;15.23;14.23;;;13.40;99.90;;;;;;5007338;28;20205;-81
2023/08/29 01:57:03;;;;;;;15.77;14.67;;;13.30;99.90;;;;;;5012041;28;20189;-80
2023/08/29 01:59:31;;;;;;;16.07;14.80;;;13.40;99.90;;;;;;5011615;28;20236;-80
2023/08/29 02:02:01;;;;;;;16.37;15.10;;;13.30;99.90;;;;;;4994775;28;20275;-80
2023/08/29 02:04:29;;;;;;;15.70;14.70;;;13.30;99.90;;;;;;5011453;28;20582;-80
2023/08/29 02:06:55;;;;;;;16.07;14.97;;;13.30;99.90;;;;;;4995604;28;20567;-80
2023/08/29 02:09:24;;;;;;;16.03;14.93;;;13.30;99.90;;;;;;4994710;28;20264;-80
2023/08/29 02:11:51;;;;;;;16.67;15.50;;;13.40;99.90;;;;;;5010640;28;20229;-80
2023/08/29 02:14:17;;;;;;;17.87;16.50;;;13.30;99.90;;;;;;5007007;28;20208;-80
2023/08/29 02:16:44;;;;;;;17.13;15.97;;;13.40;99.90;;;;;;4994525;28;20189;-80
2023/08/29 02:19:16;;;;;;;16.53;15.43;;;13.40;99.90;;;;;;5011070;28;20301;-80
2023/08/29 02:21:44;;;;;;;15.80;14.67;;;13.30;99.90;;;;;;5011244;28;20312;-81
2023/08/29 02:24:10;;;;;;;16.17;15.07;;;13.40;99.90;;;;;;5001130;28;20272;-80
2023/08/29 02:26:37;;;;;;;15.80;14.70;;;13.40;99.90;;;;;;4994009;28;20255;-80
2023/08/29 02:29:04;;;;;;;16.47;15.37;;;13.40;99.90;;;;;;5010560;28;20208;-80
2023/08/29 02:31:31;;;;;;;16.97;15.80;;;13.40;99.90;;;;;;5006432;28;20239;-80
2023/08/29 02:33:58;;;;;;;15.47;14.47;;;13.40;99.90;;;;;;4993957;28;20275;-81
2023/08/29 02:36:28;;;;;;;16.10;15.00;;;13.40;99.90;;;;;;4991484;28;20205;-80
2023/08/29 02:38:55;;;;;;;17.30;16.20;;;13.40;99.90;;;;;;4995463;28;20276;-80
2023/08/29 02:42:02;;;;;;;17.53;16.40;;;13.40;99.90;;;;;;5010560;28;20663;-83
2023/08/29 02:44:29;;;;;;;16.97;15.80;;;13.40;99.90;;;;;;4955693;28;20201;-80
2023/08/29 02:46:56;;;;;;;15.97;14.90;;;13.40;99.90;;;;;;5011184;28;20260;-78
2023/08/29 02:49:23;;;;;;;17.40;16.10;;;13.40;99.90;;;;;;5011703;28;20212;-81
2023/08/29 02:52:00;;;;;;;17.00;15.80;;;13.40;99.90;;;;;;5010309;28;20271;-85
2023/08/29 02:54:44;;;;;;;16.40;15.30;;;13.40;99.90;;;;;;5006389;28;20201;-83
2023/08/29 02:57:10;;;;;;;14.67;13.67;;;13.40;99.90;;;;;;5000944;28;20205;-83
2023/08/29 02:59:37;;;;;;;15.27;14.27;;;13.30;99.90;;;;;;4990001;28;20209;-82
2023/08/29 03:02:04;;;;;;;14.60;13.70;;;13.30;99.90;;;;;;5002961;28;20209;-83
2023/08/29 03:04:31;;;;;;;15.27;14.27;;;13.30;99.90;;;;;;5008407;28;20660;-83
2023/08/29 03:06:59;;;;;;;15.43;14.43;;;13.30;99.90;;;;;;4991963;28;20217;-82
2023/08/29 03:09:28;;;;;;;15.73;14.73;;;13.30;99.90;;;;;;5011627;28;20197;-82
2023/08/29 03:11:57;;;;;;;16.30;15.20;;;13.30;99.90;;;;;;4996332;28;20213;-79
2023/08/29 03:14:24;;;;;;;15.90;15.00;;;13.30;99.90;;;;;;4987212;28;20232;-82
2023/08/29 03:16:51;;;;;;;15.70;14.80;;;13.30;99.90;;;;;;4995006;28;20197;-83
2023/08/29 03:19:18;;;;;;;15.50;14.50;;;13.20;99.90;;;;;;4994553;28;20664;-83
2023/08/29 03:21:45;;;;;;;15.47;14.47;;;13.30;99.90;;;;;;5010471;28;20231;-82
2023/08/29 03:24:13;;;;;;;15.77;14.77;;;13.20;99.90;;;;;;4992397;28;20194;-83
2023/08/29 03:26:40;;;;;;;16.27;15.17;;;13.30;99.90;;;;;;5011835;28;20672;-82
2023/08/29 03:29:07;;;;;;;15.40;14.50;;;13.30;99.90;;;;;;4992387;28;20201;-77
2023/08/29 03:31:34;;;;;;;15.70;14.80;;;13.20;99.90;;;;;;5011229;28;20221;-78
2023/08/29 03:34:02;;;;;;;15.53;14.53;;;13.20;99.90;;;;;;5011129;28;20227;-78
2023/08/29 03:36:29;;;;;;;16.27;15.27;;;13.30;99.90;;;;;;5009901;28;20201;-78
2023/08/29 03:38:56;;;;;;;16.37;15.37;;;13.20;99.90;;;;;;4993651;28;20202;-82
2023/08/29 03:41:24;;;;;;;16.43;15.37;;;13.30;99.90;;;;;;5009954;28;20726;-78
2023/08/29 03:43:51;;;;;;;16.00;15.00;;;13.20;99.90;;;;;;4992222;28;20203;-79
2023/08/29 03:46:18;;;;;;;16.37;15.37;;;13.20;99.90;;;;;;4992368;28;20201;-78
2023/08/29 03:48:45;;;;;;;16.70;15.60;;;13.30;99.90;;;;;;4995478;28;20222;-80
2023/08/29 03:51:12;;;;;;;16.87;15.67;;;13.20;99.90;;;;;;5013315;28;20216;-78
2023/08/29 03:53:39;;;;;;;16.73;15.63;;;13.30;99.90;;;;;;4998544;28;20193;-79
2023/08/29 03:56:09;;;;;;;16.63;15.53;;;13.20;99.90;;;;;;5013344;28;20552;-78
2023/08/29 03:58:38;;;;;;;16.20;15.13;;;13.20;99.90;;;;;;4996130;28;20229;-79
2023/08/29 04:01:05;;;;;;;17.30;16.20;;;13.20;99.90;;;;;;4995997;28;20224;-78
2023/08/29 04:03:32;;;;;;;17.07;15.97;;;13.20;99.90;;;;;;4994635;28;20193;-78
2023/08/29 04:05:59;;;;;;;16.93;15.83;;;13.20;99.90;;;;;;4994723;28;20197;-78
2023/08/29 04:08:26;;;;;;;17.03;15.93;;;13.20;99.90;;;;;;5010876;28;20224;-77
2023/08/29 04:10:53;;;;;;;16.50;15.50;;;13.20;99.90;;;;;;4994965;28;20217;-78
2023/08/29 04:13:19;;;;;;;17.57;16.40;;;13.20;99.90;;;;;;4994386;28;20960;-78
2023/08/29 04:15:50;;;;;;;18.27;17.07;;;13.20;99.90;;;;;;5011354;28;20255;-78
2023/08/29 04:18:17;;;;;;;18.43;17.23;;;13.20;99.90;;;;;;4996511;28;20189;-78
2023/08/29 04:20:45;;;;;;;18.10;16.90;;;13.20;99.90;;;;;;4994162;28;20209;-78
2023/08/29 04:23:12;;;;;;;18.30;17.10;;;13.20;99.90;;;;;;4993868;28;20193;-78
2023/08/29 04:25:38;;;;;;;18.27;17.07;;;13.20;99.90;;;;;;4991872;28;20201;-78
2023/08/29 04:28:06;;;;;;;18.20;17.10;;;13.20;99.90;;;;;;4992944;28;20224;-78
2023/08/29 04:30:33;;;;;;;18.13;16.97;;;13.30;99.90;;;;;;4993787;28;20244;-78
2023/08/29 04:33:02;;;;;;;17.43;16.33;;;13.30;99.90;;;;;;5013088;28;20204;-79
2023/08/29 04:35:29;;;;;;;18.47;17.37;;;13.30;99.90;;;;;;5006701;28;20208;-78
2023/08/29 04:37:56;;;;;;;18.30;17.20;;;13.30;99.90;;;;;;4998331;28;20661;-79
2023/08/29 04:40:23;;;;;;;18.47;17.37;;;13.30;99.90;;;;;;4998450;28;20228;-79
2023/08/29 04:42:51;;;;;;;17.87;16.77;;;13.30;99.90;;;;;;4998566;28;20587;-79
2023/08/29 04:45:19;;;;;;;18.10;17.00;;;13.30;99.90;;;;;;4996500;28;20205;-79
2023/08/29 04:47:46;;;;;;;18.60;17.40;;;13.30;99.90;;;;;;4997258;28;20305;-78
2023/08/29 04:50:15;;;;;;;19.10;17.90;;;13.30;99.90;;;;;;5012795;28;20762;-78
2023/08/29 04:52:42;;;;;;;18.60;17.40;;;13.30;99.90;;;;;;5013189;28;20632;-79
2023/08/29 04:55:09;;;;;;;18.07;16.97;;;13.30;99.90;;;;;;5012719;28;20581;-79
2023/08/29 04:57:36;;;;;;;18.33;17.13;;;13.40;99.90;;;;;;4996089;28;20205;-78
2023/08/29 05:00:05;;;;;;;18.20;17.10;;;13.40;99.90;;;;;;4997295;28;20323;-78
2023/08/29 05:02:32;;;;;;;18.70;17.50;;;13.40;99.90;;;;;;4996986;28;20225;-83
2023/08/29 05:04:59;;;;;;;18.43;17.33;;;13.40;99.90;;;;;;5011061;28;20583;-79
2023/08/29 05:07:27;;;;;;;18.17;17.03;;;13.40;99.90;;;;;;5007410;28;20235;-78
2023/08/29 05:09:55;;;;;;;18.00;16.90;;;13.40;99.90;;;;;;5008995;28;20204;-79
2023/08/29 05:12:22;;;;;;;18.60;17.33;;;13.50;99.90;;;;;;4992179;28;20230;-78
2023/08/29 05:14:49;;;;;;;18.30;17.20;;;13.50;99.90;;;;;;5009404;28;20268;-78
2023/08/29 05:17:17;;;;;;;18.27;17.07;;;13.50;99.90;;;;;;4994930;28;20197;-78
2023/08/29 05:19:44;;;;;;;19.07;17.80;;;13.50;99.90;;;;;;4995122;28;20247;-83
2023/08/29 05:22:11;;;;;;;18.70;17.47;;;13.50;99.90;;;;;;4995826;28;20292;-79
2023/08/29 05:24:39;;;;;;;18.20;17.00;;;13.50;99.90;;;;;;4996022;28;20240;-79
2023/08/29 05:27:06;;;;;;;19.10;17.80;;;13.50;99.90;;;;;;4996365;28;20225;-78
2023/08/29 05:29:33;;;;;;;18.17;16.97;;;13.50;99.90;;;;;;4996599;28;20201;-78
2023/08/29 05:31:59;;;;;;;18.97;17.77;;;13.50;99.90;;;;;;4997256;28;20204;-78
2023/08/29 05:34:26;;;;;;;18.80;17.60;;;13.50;99.90;;;;;;5010905;28;20208;-76
2023/08/29 05:36:53;;;;;;;18.67;17.47;;;13.50;99.90;;;;;;4996614;28;20189;-78
2023/08/29 05:39:21;;;;;;;18.27;17.07;;;13.50;99.90;;;;;;4996956;28;20695;-77
2023/08/29 05:41:50;;;;;;;18.10;16.90;;;13.50;99.90;;;;;;4996030;28;20232;-78
2023/08/29 05:44:17;;;;;;;16.97;15.97;;;13.50;99.90;;;;;;5011273;28;20259;-77
2023/08/29 05:46:44;;;;;;;18.20;17.00;;;13.50;99.90;;;;;;4995875;28;20197;-78
2023/08/29 05:49:10;;;;;;;18.40;17.20;;;13.60;99.90;;;;;;5011633;28;20229;-79
2023/08/29 05:51:37;;;;;;;18.10;17.00;;;13.60;99.90;;;;;;4994030;28;20221;-78
2023/08/29 05:54:04;;;;;;;19.67;18.37;;;13.60;99.90;;;;;;5011087;28;20205;-78
2023/08/29 05:56:31;;;;;;;20.13;18.83;;;13.70;99.90;;;;;;4996521;28;20216;-79
2023/08/29 05:58:59;;;;;;;18.60;17.40;;;13.70;99.90;;;;;;4996907;28;20535;-78
2023/08/29 06:01:26;;;;;;;19.58;18.27;;;13.70;99.90;;;;;;4995498;28;20433;-79
2023/08/29 06:03:53;;;;;;;18.47;17.30;;;13.70;99.90;;;;;;4998296;28;20656;-82
2023/08/29 06:06:21;;;;;;;18.23;17.03;;;13.60;99.90;;;;;;5010816;28;20254;-82
2023/08/29 06:08:47;;;;;;;18.97;17.77;;;13.70;99.90;;;;;;4995632;28;20304;-82
2023/08/29 06:11:14;;;;;;;18.77;17.47;;;13.60;99.90;;;;;;5011078;28;20268;-81
2023/08/29 06:13:41;;;;;;;19.27;18.07;;;13.70;99.90;;;;;;5010042;28;20260;-81
2023/08/29 06:16:09;;;;;;;18.80;17.60;;;13.70;99.90;;;;;;4996032;28;20239;-80
2023/08/29 06:18:36;;;;;;;19.27;17.97;;;13.70;99.90;;;;;;4995900;28;20194;-81
2023/08/29 06:21:04;;;;;;;20.00;18.70;;;13.70;99.90;;;;;;4994395;28;20247;-81
2023/08/29 06:23:31;;;;;;;20.93;19.53;;;13.60;99.90;;;;;;4995796;28;20194;-80
2023/08/29 06:25:59;;;;;;;21.73;20.23;;;13.60;99.90;;;;;;4998767;28;20208;-80
2023/08/29 06:28:27;;;;;;;21.07;19.67;;;13.70;99.90;;;;;;5012282;28;20240;-79
2023/08/29 06:30:54;;;;;;;23.23;21.37;;;13.60;99.90;;;;;;4998095;28;20227;-84
2023/08/29 06:33:22;;;;;;;21.10;19.70;;;13.70;99.90;;;;;;4997889;28;20256;-80
2023/08/29 06:35:49;;;;;;;22.27;20.70;;;13.70;99.90;;;;;;5014764;28;20205;-82
2023/08/29 06:38:16;;;;;;;22.50;20.80;;;13.70;99.90;;;;;;4998046;28;20243;-81
2023/08/29 06:40:43;;;;;;;24.77;22.87;;;13.70;99.90;;;;;;5013492;28;20661;-82
2023/08/29 06:43:10;;;;;;;23.40;21.40;;;13.70;99.90;;;;;;4996693;28;20203;-78
2023/08/29 06:45:37;;;;;;;23.10;21.37;;;13.70;99.90;;;;;;5011863;28;20203;-79
2023/08/29 06:48:05;;;;;;;24.10;22.17;;;13.70;99.90;;;;;;5000587;28;20214;-78
2023/08/29 06:50:34;;;;;;;23.67;21.87;;;13.60;99.90;;;;;;4997430;28;20225;-79
2023/08/29 06:53:01;;;;;;;22.70;20.97;;;13.60;99.90;;;;;;5000003;28;20687;-79
2023/08/29 06:55:28;;;;;;;21.95;20.45;;;13.70;99.90;;;;;;5014369;28;20440;-79
2023/08/29 06:57:55;;;;;;;21.87;20.37;;;13.70;99.90;;;;;;5000791;28;20221;-79
2023/08/29 07:00:23;;;;;;;23.43;21.70;;;13.70;99.90;;;;;;4998172;28;20232;-79
2023/08/29 07:02:50;;;;;;;23.20;21.50;;;13.70;99.90;;;;;;4992608;28;20288;-79
2023/08/29 07:05:17;;;;;;;22.57;20.87;;;13.80;99.90;;;;;;5000559;28;20197;-78
2023/08/29 07:07:45;;;;;;;24.75;23.00;;;13.80;99.90;;;;;;5002187;28;20503;-79
2023/08/29 07:10:12;;;;;;;22.63;20.90;;;13.90;99.90;;;;;;5015569;28;20264;-79
2023/08/29 07:12:39;;;;;;;22.47;20.87;;;13.90;99.90;;;;;;4999278;28;20198;-79
2023/08/29 07:15:07;;;;;;;22.73;21.13;;;13.90;99.90;;;;;;5000152;28;20428;-78
2023/08/29 07:17:33;;;;;;;24.02;22.42;;;13.90;99.90;;;;;;4998613;28;20436;-79
2023/08/29 07:20:00;;;;;;;22.67;21.10;;;13.90;99.90;;;;;;5000139;28;20259;-79
2023/08/29 07:22:27;;;;;;;23.37;21.77;;;13.90;99.90;;;;;;4990911;28;20202;-79
2023/08/29 07:24:55;;;;;;;23.10;21.30;;;13.90;99.90;;;;;;5000871;28;20199;-78
2023/08/29 07:27:22;;;;;;;20.20;18.77;;;14.00;99.90;;;;;;5014561;28;20212;-78
2023/08/29 07:29:49;;;;;;;21.50;20.00;;;14.10;99.90;;;;;;4994669;28;20216;-82
2023/08/29 07:32:16;;;;;;;20.53;19.03;;;14.20;99.90;;;;;;5011554;28;20211;-83
2023/08/29 07:34:42;;;;;;;23.37;21.67;;;14.20;99.90;;;;;;5011520;28;20197;-83
2023/08/29 07:37:09;;;;;;;24.60;22.70;;;14.10;99.90;;;;;;4997445;28;20202;-83
2023/08/29 07:39:36;;;;;;;23.00;21.50;;;14.20;99.90;;;;;;4999150;28;20748;-83
2023/08/29 07:42:05;;;;;;;25.27;23.43;;;14.30;99.90;;;;;;4997983;28;20198;-82
2023/08/29 07:44:32;;;;;;;23.50;21.60;;;14.40;99.90;;;;;;4998029;28;20201;-80
2023/08/29 07:46:59;;;;;;;23.67;21.80;;;14.40;99.90;;;;;;4999162;28;20211;-83
2023/08/29 07:49:26;;;;;;;24.10;22.40;;;14.50;99.90;;;;;;5013875;28;20301;-81
2023/08/29 07:51:53;;;;;;;24.30;22.50;;;14.50;99.90;;;;;;4987757;28;20245;-84
2023/08/29 07:54:20;;;;;;;23.47;21.57;;;14.50;99.90;;;;;;4996646;28;20204;-83
2023/08/29 07:56:47;;;;;;;22.57;20.87;;;14.60;99.90;;;;;;4998307;28;20228;-82
2023/08/29 07:59:15;;;;;;;22.03;20.43;;;14.70;99.90;;;;;;5013925;28;20398;-82
2023/08/29 08:01:43;;;;;;;21.93;20.33;;;14.70;99.90;;;;;;5000446;28;20231;-82
2023/08/29 08:04:11;;;;;;;22.20;20.57;;;14.70;99.90;;;;;;4995629;28;20748;-82
2023/08/29 08:06:37;;;;;;;21.67;20.17;;;14.80;99.90;;;;;;4999270;28;20204;-84
2023/08/29 08:09:04;;;;;;;22.27;20.47;;;14.70;99.90;;;;;;5015719;28;20265;-82
2023/08/29 08:11:34;;;;;;;22.37;20.77;;;14.70;99.90;;;;;;5000665;28;20267;-84
2023/08/29 08:14:01;;;;;;;23.43;21.83;;;14.80;99.90;;;;;;4996028;28;20570;-82
2023/08/29 08:16:31;;;;;;;21.63;20.13;;;14.90;99.90;;;;;;4997403;28;20211;-82
2023/08/29 08:18:57;;;;;;;22.50;20.90;;;15.00;99.90;;;;;;4995721;28;20241;-83
2023/08/29 08:21:24;;;;;;;21.33;19.67;;;15.00;99.90;;;;;;4997403;28;20228;-81
2023/08/29 08:23:52;;;;;;;16.83;15.53;;;15.00;99.90;;;;;;5013253;28;20258;-83
2023/08/29 08:26:18;;;;;;;18.50;17.10;;;14.90;99.90;;;;;;4997884;28;20297;-84
2023/08/29 08:28:46;;;;;;;18.47;17.07;;;14.80;99.90;;;;;;4994895;28;20702;-83
2023/08/29 08:31:12;;;;;;;19.13;17.43;;;14.70;99.90;;;;;;5010578;28;20227;-82
2023/08/29 08:33:41;;;;;;;19.23;17.83;;;14.70;99.90;;;;;;4993444;28;20207;-82
2023/08/29 08:36:07;;;;;;;21.63;20.13;;;14.60;99.90;;;;;;4994728;28;20234;-83
2023/08/29 08:38:34;;;;;;;21.10;19.50;;;14.60;99.90;;;;;;4993106;28;20577;-83
2023/08/29 08:41:01;;;;;;;21.90;20.20;;;14.70;99.90;;;;;;5007822;28;20251;-83
2023/08/29 08:43:31;;;;;;;20.50;19.00;;;14.80;99.90;;;;;;4991959;28;20729;-84
2023/08/29 08:45:59;;;;;;;21.23;19.70;;;15.00;99.90;;;;;;4993369;28;20242;-83
2023/08/29 08:48:26;;;;;;;20.47;18.97;;;15.10;99.90;;;;;;4994426;28;20591;-83
2023/08/29 08:50:54;;;;;;;19.60;18.20;;;15.30;99.90;;;;;;5005130;28;20230;-82
2023/08/29 08:53:22;;;;;;;16.90;15.70;;;15.50;99.90;;;;;;4998560;28;20231;-82
2023/08/29 08:55:51;;;;;;;15.83;14.47;;;15.60;99.90;;;;;;5013969;28;20267;-82
2023/08/29 08:58:18;;;;;;;20.13;18.73;;;15.70;99.90;;;;;;5008760;28;20444;-81
2023/08/29 09:00:46;;;;;;;16.57;15.37;;;15.70;99.90;;;;;;4999109;28;20283;-83
2023/08/29 09:03:16;;;;;;;18.90;17.50;;;15.80;99.90;;;;;;5000524;28;20201;-84
2023/08/29 09:05:49;;;;;;;15.80;14.60;;;15.70;99.90;;;;;;4999226;28;20209;-82
2023/08/29 09:08:20;;;;;;;16.27;14.97;;;15.70;99.90;;;;;;5013087;28;20216;-82
2023/08/29 09:10:47;;;;;;;14.90;13.80;;;15.80;99.90;;;;;;5001245;28;20242;-81
2023/08/29 09:13:17;;;;;;;14.57;13.57;;;15.80;99.90;;;;;;5000534;28;20185;-81
2023/08/29 09:15:46;;;;;;;15.33;14.20;;;15.80;99.90;;;;;;5010194;28;20683;-81
2023/08/29 09:18:13;;;;;;;14.00;13.00;;;15.80;99.90;;;;;;5002227;28;20202;-82
2023/08/29 09:20:43;;;;;;;14.00;12.90;;;15.80;99.90;;;;;;5003786;28;20220;-83
2023/08/29 09:23:22;;;;;;;14.20;13.20;;;15.80;99.90;;;;;;5018556;28;20277;-81
2023/08/29 09:25:54;;;;;;;17.73;16.43;;;15.70;99.90;;;;;;4998433;28;20201;-80
2023/08/29 09:28:21;;;;;;;15.57;14.47;;;15.80;99.90;;;;;;5014764;28;20255;-80
2023/08/29 09:30:48;;;;;;;16.37;15.17;;;15.70;99.90;;;;;;4993812;28;20227;-83
2023/08/29 09:33:20;;;;;;;16.00;14.90;;;15.60;99.90;;;;;;5000498;28;20438;-83
2023/08/29 09:35:47;;;;;;;14.60;13.50;;;15.50;99.90;;;;;;5014366;28;20208;-79
2023/08/29 09:38:14;;;;;;;17.77;16.40;;;15.40;99.90;;;;;;4999023;28;20201;-79
2023/08/29 09:40:50;;;;;;;18.27;16.88;;;15.30;99.90;;;;;;4997012;28;20444;-80
2023/08/29 09:43:18;;;;;;;18.75;17.55;;;15.20;99.90;;;;;;4992828;28;20471;-80
2023/08/29 09:45:50;;;;;;;16.93;15.73;;;15.10;99.90;;;;;;4999532;28;20680;-79
2023/08/29 09:48:17;;;;;;;16.10;15.03;;;15.10;99.90;;;;;;4998372;28;20209;-80
2023/08/29 09:50:45;;;;;;;15.13;14.03;;;15.20;99.90;;;;;;4999391;28;20694;-79
2023/08/29 09:53:15;;;;;;;16.43;15.27;;;15.40;99.90;;;;;;4998998;28;20223;-80
2023/08/29 09:55:45;;;;;;;14.43;13.43;;;15.60;99.90;;;;;;4999681;28;20203;-80
2023/08/29 09:58:15;;;;;;;14.90;13.83;;;15.80;99.90;;;;;;4998503;28;20228;-80
2023/08/29 10:00:42;;;;;;;14.67;13.47;;;16.00;99.90;;;;;;4998374;28;20224;-79
2023/08/29 10:03:10;;;;;;;15.17;14.17;;;16.10;99.90;;;;;;4996901;28;20216;-79
2023/08/29 10:05:39;;;;;;;15.27;14.27;;;16.20;99.90;;;;;;4997889;28;20197;-78
2023/08/29 10:08:14;;;;;;;14.87;13.87;;;16.20;99.90;;;;;;4997658;28;20744;-80
2023/08/29 10:10:42;;;;;;;17.40;16.20;;;16.30;99.90;;;;;;5004237;28;20282;-79
2023/08/29 10:13:10;;;;;;;15.90;14.90;;;16.40;99.90;;;;;;4997977;28;20276;-78
2023/08/29 10:15:40;;;;;;;14.73;13.73;;;16.40;99.90;;;;;;4997457;28;20271;-80
2023/08/29 10:18:08;;;;;;;14.67;13.77;;;16.50;99.90;;;;;;4998163;28;20208;-80
2023/08/29 10:20:36;;;;;;;14.57;13.57;;;16.70;99.90;;;;;;5013744;28;20215;-80
2023/08/29 10:23:05;;;;;;;14.93;13.93;;;16.90;99.90;;;;;;4997093;28;20210;-80
2023/08/29 10:25:32;;;;;;;14.33;13.33;;;17.10;99.90;;;;;;4998524;28;20626;-79
2023/08/29 10:28:00;;;;;;;14.43;13.43;;;17.30;99.90;;;;;;4998885;28;20261;-80
2023/08/29 10:30:28;;;;;;;14.40;13.40;;;17.50;99.90;;;;;;4999024;28;20226;-80
2023/08/29 10:32:57;;;;;;;7.30;6.70;;;17.70;99.90;;;;;;4998705;28;20686;-80
2023/08/29 10:35:23;;;;;;;7.30;6.70;;;17.90;99.90;;;;;;4997542;28;20207;-80
2023/08/29 10:37:51;;;;;;;8.17;7.57;;;18.00;99.90;;;;;;4996964;28;20210;-80
2023/08/29 10:40:18;;;;;;;10.23;9.37;;;18.00;99.90;;;;;;4998338;28;20691;-83
2023/08/29 10:42:54;;;;;;;8.10;7.40;;;18.00;99.90;;;;;;4999835;28;20253;-81
2023/08/29 10:45:22;;;;;;;10.73;9.93;;;18.00;99.90;;;;;;4998897;28;20234;-82
2023/08/29 10:47:49;;;;;;;12.00;11.00;;;17.90;99.90;;;;;;4997694;28;20222;-82
2023/08/29 10:50:22;;;;;;;7.10;6.50;;;18.00;99.90;;;;;;4998342;28;20239;-82
2023/08/29 10:52:54;;;;;;;7.47;6.87;;;17.90;99.90;;;;;;4997481;28;20222;-82
2023/08/29 10:55:23;;;;;;;7.23;6.63;;;17.90;99.90;;;;;;5015923;28;20279;-83
2023/08/29 10:57:51;;;;;;;6.97;6.40;;;17.90;99.90;;;;;;5002545;28;20222;-82
2023/08/29 11:00:33;;;;;;;7.20;6.50;;;17.80;99.90;;;;;;5012457;28;20239;-83
2023/08/29 11:03:01;;;;;;;7.23;6.53;;;17.90;99.90;;;;;;5002346;28;20231;-83
2023/08/29 11:05:29;;;;;;;6.63;6.03;;;17.90;99.90;;;;;;5000779;28;20209;-83
2023/08/29 11:08:20;;;;;;;6.73;6.13;;;17.80;99.90;;;;;;5016605;28;20679;-83
2023/08/29 11:11:13;;;;;;;6.87;6.27;;;17.80;99.90;;;;;;5001430;28;20236;-82
2023/08/29 11:13:54;;;;;;;6.60;6.10;;;17.90;99.90;;;;;;4998857;28;20216;-82
2023/08/29 11:16:21;;;;;;;5.97;5.47;;;18.00;99.90;;;;;;4996554;28;20209;-83
2023/08/29 11:18:48;;;;;;;5.77;5.27;;;18.10;99.90;;;;;;5000336;28;20226;-83
2023/08/29 11:21:17;;;;;;;11.93;11.13;;;18.20;99.90;;;;;;5001859;28;20591;-83
2023/08/29 11:23:45;;;;;;;7.40;6.80;;;18.40;99.90;;;;;;5015331;28;20690;-82
2023/08/29 11:26:12;;;;;;;6.17;5.67;;;18.60;99.90;;;;;;4992433;28;20679;-83
2023/08/29 11:28:41;;;;;;;5.23;4.83;;;18.60;99.90;;;;;;5008497;28;20223;-83
2023/08/29 11:31:08;;;;;;;5.43;5.03;;;18.70;99.90;;;;;;5003421;28;20221;-83
2023/08/29 11:33:36;;;;;;;10.63;10.03;;;18.70;99.90;;;;;;4996909;28;20197;-83
2023/08/29 11:36:05;;;;;;;10.83;10.23;;;18.70;99.90;;;;;;5015372;28;20228;-83
2023/08/29 11:38:34;;;;;;;4.40;4.03;;;18.60;99.90;;;;;;4998696;28;20201;-83
2023/08/29 11:41:04;;;;;;;11.10;10.50;;;18.50;99.90;;;;;;4998583;28;20217;-84
2023/08/29 11:43:32;;;;;;;11.13;10.53;;;18.50;99.90;;;;;;4997656;28;20197;-83
2023/08/29 11:46:01;;;;;;;11.47;10.67;;;18.60;99.90;;;;;;4997661;28;20301;-82
2023/08/29 11:48:29;;;;;;;10.07;9.43;;;18.40;99.90;;;;;;4997346;28;20208;-83
2023/08/29 11:50:57;;;;;;;10.17;9.57;;;18.30;99.90;;;;;;4996529;28;20248;-83
2023/08/29 11:53:27;;;;;;;12.20;11.30;;;18.10;99.90;;;;;;4995966;28;20303;-83
2023/08/29 11:55:56;;;;;;;12.83;11.93;;;18.00;99.90;;;;;;5011948;28;20205;-83
2023/08/29 11:58:25;;;;;;;14.63;13.67;;;17.80;99.90;;;;;;5000741;28;20222;-83
2023/08/29 12:00:53;;;;;;;14.60;13.63;;;17.60;99.90;;;;;;5000315;28;20254;-83
2023/08/29 12:03:21;;;;;;;13.70;12.90;;;17.30;99.90;;;;;;5016089;28;20227;-83
2023/08/29 12:05:49;;;;;;;13.57;12.77;;;17.00;99.90;;;;;;5001788;28;20203;-82
2023/08/29 12:08:16;;;;;;;14.37;13.37;;;16.90;99.90;;;;;;5017605;28;20673;-82
2023/08/29 12:10:53;;;;;;;11.60;10.80;;;16.70;99.90;;;;;;5000628;28;20218;-83
2023/08/29 12:13:22;;;;;;;11.80;11.00;;;16.50;99.90;;;;;;4998806;28;20484;-83
2023/08/29 12:15:49;;;;;;;13.60;12.20;;;16.40;99.90;;;;;;5000667;28;20232;-83
2023/08/29 12:18:21;;;;;;;16.30;14.73;;;16.20;99.90;;;;;;5014074;28;20201;-81
2023/08/29 12:20:48;;;;;;;13.10;12.10;;;16.00;99.90;;;;;;4997657;28;20209;-81
2023/08/29 12:23:25;;;;;;;15.27;14.13;;;15.80;99.90;;;;;;5006830;28;20264;-82
2023/08/29 12:25:52;;;;;;;8.13;7.53;;;15.60;99.90;;;;;;5013257;28;20228;-83
2023/08/29 12:28:18;;;;;;;11.53;10.80;;;15.60;99.90;;;;;;5001789;28;20207;-83
2023/08/29 12:30:46;;;;;;;11.87;11.07;;;15.60;99.90;;;;;;4999209;28;20233;-83
2023/08/29 12:33:13;;;;;;;7.47;6.83;;;15.60;99.90;;;;;;4999497;28;20612;-82